Time;durP1;ratioP1;P1;durP2;ratioP2;P2;SDS_P1;SDS_P2;PMS_P1;PMS_P2;Temp;Humidity;BMP_temperature;BMP_pressure;BME280_temperature;BME280_humidity;BME280_pressure;Samples;Min_cycle;Max_cycle;Signal;HPM_P1;HPM_P2
2021/07/26 00:01:45;;;;;;;6.40;5.85;;;;;;;24.07;62.81;100179.56;5012202;28;20690;-43
2021/07/26 00:04:11;;;;;;;7.00;6.40;;;;;;;24.08;62.65;100185.81;5012521;28;20061;-42
2021/07/26 00:06:36;;;;;;;6.18;5.65;;;;;;;24.07;62.39;100186.78;5012000;28;20032;-42
2021/07/26 00:09:03;;;;;;;6.25;5.70;;;;;;;24.08;62.56;100180.44;5012050;28;20036;-42
2021/07/26 00:11:28;;;;;;;7.13;5.97;;;;;;;24.07;62.40;100187.66;4994955;28;20022;-42
2021/07/26 00:13:53;;;;;;;6.72;6.07;;;;;;;24.07;62.77;100178.69;5012412;28;20026;-42
2021/07/26 00:16:19;;;;;;;6.57;5.97;;;;;;;24.06;62.57;100183.25;5010784;28;20088;-43
2021/07/26 00:18:44;;;;;;;6.50;5.95;;;;;;;24.06;62.41;100180.56;5012122;28;20060;-42
2021/07/26 00:21:09;;;;;;;7.03;6.38;;;;;;;24.06;62.81;100187.75;5011507;28;20504;-42
2021/07/26 00:23:35;;;;;;;6.70;6.10;;;;;;;24.04;62.69;100178.94;5012446;28;20037;-42
2021/07/26 00:26:00;;;;;;;6.47;5.97;;;;;;;24.02;62.85;100180.88;5009121;28;20022;-43
2021/07/26 00:28:26;;;;;;;6.65;6.05;;;;;;;24.03;62.73;100171.81;5011494;28;20084;-42
2021/07/26 00:30:52;;;;;;;8.07;7.45;;;;;;;24.01;62.47;100179.16;5011767;28;20072;-44
2021/07/26 00:34:00;;;;;;;7.72;6.57;;;;;;;24.02;62.59;100180.88;5012369;28;20033;-41
2021/07/26 00:36:25;;;;;;;6.55;5.95;;;;;;;24.00;62.54;100183.69;5011672;28;20160;-41
2021/07/26 00:38:51;;;;;;;6.57;5.97;;;;;;;24.00;62.66;100183.69;5011707;28;20143;-43
2021/07/26 00:41:16;;;;;;;6.78;6.18;;;;;;;23.99;62.58;100184.66;5015592;28;20087;-41
2021/07/26 00:43:42;;;;;;;6.68;6.00;;;;;;;23.99;62.83;100186.50;5016296;28;20026;-43
2021/07/26 00:46:08;;;;;;;7.05;6.35;;;;;;;23.98;62.57;100184.78;5015731;28;20063;-42
2021/07/26 00:48:33;;;;;;;6.60;6.00;;;;;;;23.98;62.59;100187.47;4999035;28;20025;-41
2021/07/26 00:50:58;;;;;;;6.40;5.90;;;;;;;23.98;62.86;100184.78;5015615;28;20396;-41
2021/07/26 00:53:23;;;;;;;7.00;6.40;;;;;;;23.97;62.51;100183.91;5016255;28;20376;-41
2021/07/26 00:55:49;;;;;;;7.38;6.68;;;;;;;23.96;62.59;100180.38;5015468;28;20030;-42
2021/07/26 00:58:15;;;;;;;7.30;6.60;;;;;;;23.94;62.45;100168.00;5014196;28;20061;-42
2021/07/26 01:00:40;;;;;;;7.47;6.00;;;;;;;23.96;62.75;100185.75;5015286;28;20026;-41
2021/07/26 01:03:05;;;;;;;7.47;6.55;;;;;;;23.96;62.55;100185.75;5015512;28;20034;-41
2021/07/26 01:05:31;;;;;;;7.13;6.43;;;;;;;23.94;62.67;100185.00;5014942;28;20056;-41
2021/07/26 01:07:56;;;;;;;7.63;6.93;;;;;;;23.95;62.68;100186.72;4998365;28;20105;-41
2021/07/26 01:10:21;;;;;;;7.80;6.57;;;;;;;23.93;62.75;100187.81;5015072;28;20025;-41
2021/07/26 01:12:47;;;;;;;7.32;6.53;;;;;;;23.92;62.68;100186.09;5015377;28;20034;-41
2021/07/26 01:15:12;;;;;;;7.18;6.57;;;;;;;23.92;62.75;100181.59;5014609;28;20029;-41
2021/07/26 01:18:16;;;;;;;7.00;6.30;;;;;;;23.93;62.40;100185.97;4995700;28;20033;-42
2021/07/26 01:20:41;;;;;;;6.80;6.20;;;;;;;23.90;62.69;100190.72;4991273;28;20034;-41
2021/07/26 01:23:09;;;;;;;6.45;5.85;;;;;;;23.88;62.89;100192.69;5014840;28;20032;-41
2021/07/26 01:25:36;;;;;;;6.47;5.93;;;;;;;23.89;62.61;100192.56;5014676;28;20121;-43
2021/07/26 01:28:01;;;;;;;8.30;6.65;;;;;;;23.90;62.88;100182.63;4997233;28;20033;-42
2021/07/26 01:30:27;;;;;;;7.15;6.55;;;;;;;23.88;62.63;100196.25;5014682;28;20030;-41
2021/07/26 01:32:55;;;;;;;6.43;5.82;;;;;;;23.88;62.80;100181.91;4997506;28;20026;-41
2021/07/26 01:35:20;;;;;;;9.70;6.55;;;;;;;23.87;62.66;100178.34;5014263;28;20037;-43
2021/07/26 01:37:45;;;;;;;7.10;6.22;;;;;;;23.86;62.66;100176.63;5014340;28;20029;-41
2021/07/26 01:40:11;;;;;;;6.80;6.20;;;;;;;23.85;62.53;100180.31;5013926;28;20030;-41
2021/07/26 01:42:41;;;;;;;7.32;6.10;;;;;;;23.86;62.65;100186.53;5014261;28;20438;-43
2021/07/26 01:45:08;;;;;;;7.70;6.53;;;;;;;23.84;62.65;100187.50;5013380;28;20029;-42
2021/07/26 01:47:34;;;;;;;6.20;5.57;;;;;;;23.83;62.91;100182.25;5013635;28;20034;-42
2021/07/26 01:50:15;;;;;;;7.00;6.30;;;;;;;23.81;62.83;100178.81;5011189;28;20028;-42
2021/07/26 01:52:40;;;;;;;6.57;5.97;;;;;;;23.79;62.47;100176.22;4996619;28;20132;-41
2021/07/26 01:55:06;;;;;;;6.38;5.82;;;;;;;23.81;62.50;100184.19;5013960;28;20120;-41
2021/07/26 01:57:31;;;;;;;6.60;6.00;;;;;;;23.80;62.83;100187.84;4996624;28;20030;-41
2021/07/26 01:59:56;;;;;;;6.40;5.75;;;;;;;23.79;62.94;100186.13;4996398;28;20088;-41
2021/07/26 02:02:26;;;;;;;6.50;5.90;;;;;;;23.78;62.56;100187.09;5013927;28;20033;-41
2021/07/26 02:04:51;;;;;;;7.07;6.47;;;;;;;23.77;62.87;100182.72;5013452;28;20076;-43
2021/07/26 02:07:22;;;;;;;7.28;6.45;;;;;;;23.76;62.75;100175.56;5014289;28;20030;-41
2021/07/26 02:09:48;;;;;;;6.47;5.88;;;;;;;23.74;62.86;100173.00;5013517;28;20026;-43
2021/07/26 02:12:13;;;;;;;6.70;6.10;;;;;;;23.74;62.88;100182.91;5013869;28;20511;-41
2021/07/26 02:14:38;;;;;;;6.88;6.00;;;;;;;23.74;62.61;100174.84;5013790;28;20034;-42
2021/07/26 02:17:04;;;;;;;6.80;6.10;;;;;;;23.73;62.80;100179.34;5012864;28;20088;-41
2021/07/26 02:19:29;;;;;;;6.65;6.05;;;;;;;23.73;62.79;100178.50;5013000;28;20101;-41
2021/07/26 02:21:54;;;;;;;6.47;5.88;;;;;;;23.73;62.94;100191.94;5013578;28;20029;-43
2021/07/26 02:24:19;;;;;;;7.50;6.70;;;;;;;23.70;62.86;100188.53;5013688;28;20096;-45
2021/07/26 02:26:45;;;;;;;7.50;6.10;;;;;;;23.70;62.56;100193.91;5013396;28;20436;-42
2021/07/26 02:29:10;;;;;;;7.18;6.57;;;;;;;23.70;62.84;100199.28;5014098;28;20036;-41
2021/07/26 02:31:38;;;;;;;6.70;6.10;;;;;;;23.68;62.72;100198.53;5013472;28;20400;-41
2021/07/26 02:34:03;;;;;;;7.63;6.97;;;;;;;23.67;62.66;100199.50;5013128;28;20040;-41
2021/07/26 02:36:29;;;;;;;6.50;5.90;;;;;;;23.68;62.64;100205.75;5012891;28;20030;-42
2021/07/26 02:38:54;;;;;;;6.80;6.20;;;;;;;23.68;62.85;100203.06;5013168;28;20079;-43
2021/07/26 02:41:19;;;;;;;6.97;6.30;;;;;;;23.67;62.61;100209.41;5013069;28;20065;-41
2021/07/26 02:43:45;;;;;;;7.20;6.55;;;;;;;23.65;62.69;100212.22;5012489;28;20033;-45
2021/07/26 02:46:11;;;;;;;7.47;6.75;;;;;;;23.64;62.92;100218.56;5012145;28;20026;-41
2021/07/26 02:48:37;;;;;;;6.55;5.97;;;;;;;23.64;62.77;100220.41;4994382;28;20457;-41
2021/07/26 02:51:03;;;;;;;6.63;6.03;;;;;;;23.63;62.90;100224.06;5012489;28;20084;-41
2021/07/26 02:53:34;;;;;;;7.93;6.30;;;;;;;23.62;62.58;100228.59;5013161;28;20022;-42
2021/07/26 02:55:59;;;;;;;6.72;6.03;;;;;;;23.61;62.71;100229.53;5009429;28;20030;-42
2021/07/26 02:58:25;;;;;;;6.07;5.57;;;;;;;23.61;62.83;100220.63;5012359;28;20384;-41
2021/07/26 03:00:50;;;;;;;6.55;5.95;;;;;;;23.61;62.58;100234.09;5007168;28;20034;-42
2021/07/26 03:03:16;;;;;;;6.88;5.95;;;;;;;23.59;62.57;100239.56;5006230;28;20369;-41
2021/07/26 03:05:44;;;;;;;6.00;5.50;;;;;;;23.58;62.70;100240.56;5011974;28;20037;-41
2021/07/26 03:08:11;;;;;;;7.63;6.47;;;;;;;23.57;62.65;100241.50;5012903;28;20026;-41
2021/07/26 03:10:36;;;;;;;8.00;6.50;;;;;;;23.57;62.87;100241.50;5012264;28;20037;-41
2021/07/26 03:13:02;;;;;;;6.05;5.55;;;;;;;23.56;62.77;100240.66;5013210;28;20026;-41
2021/07/26 03:15:27;;;;;;;6.93;6.22;;;;;;;23.55;62.81;100235.38;5012391;28;20464;-41
2021/07/26 03:17:52;;;;;;;6.07;5.57;;;;;;;23.55;62.60;100248.84;5011882;28;20033;-42
2021/07/26 03:20:18;;;;;;;6.60;5.85;;;;;;;23.54;62.61;100244.44;5012390;28;20026;-41
2021/07/26 03:23:08;;;;;;;6.30;5.80;;;;;;;23.54;62.56;100249.81;5012473;28;20026;-41
2021/07/26 03:25:51;;;;;;;6.90;6.30;;;;;;;23.52;62.85;100249.94;5011370;28;20048;-41
2021/07/26 03:28:16;;;;;;;6.88;6.25;;;;;;;23.52;62.91;100249.06;5001354;28;20538;-41
2021/07/26 03:30:42;;;;;;;6.90;6.03;;;;;;;23.52;62.56;100251.75;5001168;28;20030;-41
2021/07/26 03:33:11;;;;;;;6.30;5.70;;;;;;;23.49;62.77;100255.53;4985474;28;20026;-43
2021/07/26 03:35:36;;;;;;;6.22;5.63;;;;;;;23.50;62.96;100253.69;5010573;28;20022;-42
2021/07/26 03:38:02;;;;;;;6.70;6.00;;;;;;;23.48;62.84;100248.41;5012079;28;20030;-41
2021/07/26 03:40:27;;;;;;;8.20;6.03;;;;;;;23.47;62.56;100256.59;5010466;28;20057;-42
2021/07/26 03:42:56;;;;;;;6.55;5.95;;;;;;;23.47;62.68;100256.59;5012022;28;20036;-41
2021/07/26 03:45:22;;;;;;;6.70;6.00;;;;;;;23.47;62.64;100251.22;5011667;28;20029;-42
2021/07/26 03:47:47;;;;;;;7.53;6.75;;;;;;;23.46;62.76;100261.09;5012071;28;20026;-41
2021/07/26 03:50:16;;;;;;;6.10;5.60;;;;;;;23.44;62.54;100258.53;5012061;28;20069;-41
2021/07/26 03:52:50;;;;;;;5.72;5.22;;;;;;;23.44;62.63;100258.53;5008599;28;20029;-41
2021/07/26 03:55:23;;;;;;;6.32;5.70;;;;;;;23.43;62.84;100264.88;5011543;28;20025;-44
2021/07/26 03:57:53;;;;;;;6.43;5.82;;;;;;;23.42;62.75;100260.47;5012112;28;20065;-41
2021/07/26 04:00:20;;;;;;;6.38;5.78;;;;;;;23.41;62.78;100266.81;4994316;28;20136;-41
2021/07/26 04:05:43;;;;;;;6.60;6.00;;;;;;;23.41;62.39;100265.97;4997930;28;20080;-45
2021/07/26 04:08:20;;;;;;;6.50;5.70;;;;;;;23.40;62.31;100267.78;5001232;28;20488;-42
2021/07/26 04:10:52;;;;;;;6.75;6.15;;;;;;;23.39;62.52;100268.75;5009814;28;20515;-42
2021/07/26 04:13:18;;;;;;;6.60;6.05;;;;;;;23.39;62.48;100270.56;5011340;28;20037;-42
2021/07/26 04:15:50;;;;;;;5.57;5.07;;;;;;;23.38;62.56;100264.34;5011677;28;20029;-44
2021/07/26 04:18:16;;;;;;;5.70;5.20;;;;;;;23.38;62.49;100264.34;5011052;28;20388;-41
2021/07/26 04:20:41;;;;;;;6.97;5.57;;;;;;;23.38;62.71;100269.75;5011197;28;20484;-42
2021/07/26 04:23:06;;;;;;;6.10;5.50;;;;;;;23.38;62.73;100264.34;5011702;28;20103;-41
2021/07/26 04:25:32;;;;;;;5.65;5.15;;;;;;;23.36;62.48;100266.28;5011420;28;20418;-42
2021/07/26 04:27:57;;;;;;;5.78;5.28;;;;;;;23.37;62.67;100268.00;5011592;28;20033;-41
2021/07/26 04:30:22;;;;;;;6.57;5.97;;;;;;;23.37;62.54;100277.91;5010504;28;20550;-41
2021/07/26 04:32:48;;;;;;;6.15;5.53;;;;;;;23.36;62.50;100276.16;5009999;28;20038;-43
2021/07/26 04:35:15;;;;;;;6.32;5.55;;;;;;;23.34;62.50;100278.94;5010769;28;20122;-41
2021/07/26 04:37:43;;;;;;;5.68;5.18;;;;;;;23.34;62.68;100278.94;4993676;28;20511;-42
2021/07/26 04:40:10;;;;;;;6.70;6.03;;;;;;;23.33;62.71;100283.47;5011591;28;20034;-41
2021/07/26 04:42:37;;;;;;;6.22;5.63;;;;;;;23.33;62.41;100279.91;5011171;28;20034;-41
2021/07/26 04:45:03;;;;;;;6.78;5.78;;;;;;;23.33;62.54;100282.59;5005288;28;20113;-41
2021/07/26 04:47:31;;;;;;;6.20;5.60;;;;;;;23.32;62.28;100281.75;5009931;28;20108;-41
2021/07/26 04:49:56;;;;;;;6.32;5.82;;;;;;;23.32;62.59;100286.25;5011249;28;20033;-42
2021/07/26 04:52:21;;;;;;;5.88;5.25;;;;;;;23.31;62.45;100285.38;5010834;28;20025;-41
2021/07/26 04:54:46;;;;;;;6.30;5.70;;;;;;;23.31;62.77;100281.84;4993410;28;20123;-45
2021/07/26 04:57:15;;;;;;;6.53;5.93;;;;;;;23.31;62.52;100287.25;5010311;28;20033;-42
2021/07/26 04:59:40;;;;;;;5.63;5.13;;;;;;;23.30;62.57;100278.28;5010631;28;20071;-41
2021/07/26 05:02:05;;;;;;;5.57;5.18;;;;;;;23.29;62.46;100286.47;5010215;28;20038;-45
2021/07/26 05:04:31;;;;;;;5.40;5.00;;;;;;;23.30;62.40;100288.19;5009006;28;20034;-42
2021/07/26 05:07:03;;;;;;;5.75;5.25;;;;;;;23.28;62.46;100284.75;5010447;28;20479;-42
2021/07/26 05:09:28;;;;;;;6.68;6.07;;;;;;;23.28;62.70;100290.97;4993217;28;20056;-42
2021/07/26 05:12:01;;;;;;;6.05;5.45;;;;;;;23.29;62.73;100289.16;5010614;28;20124;-42
2021/07/26 05:14:27;;;;;;;6.25;5.70;;;;;;;23.28;62.29;100295.50;5011413;28;20018;-41
2021/07/26 05:16:55;;;;;;;5.97;5.38;;;;;;;23.28;62.47;100284.75;5010948;28;20058;-42
2021/07/26 05:19:20;;;;;;;6.10;5.60;;;;;;;23.27;62.59;100288.44;5011147;28;20033;-41
2021/07/26 05:21:45;;;;;;;6.20;5.60;;;;;;;23.26;62.31;100289.38;5011187;28;20030;-41
2021/07/26 05:24:11;;;;;;;6.38;5.78;;;;;;;23.26;62.64;100292.94;5009168;28;20057;-41
2021/07/26 05:26:36;;;;;;;5.90;5.40;;;;;;;23.27;62.58;100299.19;5013983;28;20475;-43
2021/07/26 05:29:02;;;;;;;5.95;5.43;;;;;;;23.25;62.54;100293.91;5015004;28;20557;-41
2021/07/26 05:31:27;;;;;;;6.00;5.45;;;;;;;23.26;62.52;100292.06;5014621;28;20448;-42
2021/07/26 05:33:52;;;;;;;6.00;5.50;;;;;;;23.25;62.38;100301.97;5014821;28;20041;-43
2021/07/26 05:36:19;;;;;;;5.97;5.47;;;;;;;23.25;62.67;100295.72;5014476;28;20478;-42
2021/07/26 05:38:45;;;;;;;5.70;5.20;;;;;;;23.25;62.42;100303.78;5014706;28;20391;-42
2021/07/26 05:41:13;;;;;;;5.72;5.22;;;;;;;23.24;62.39;100304.78;5014767;28;20022;-41
2021/07/26 05:43:41;;;;;;;7.13;5.80;;;;;;;23.23;62.31;100305.72;4996772;28;20035;-42
2021/07/26 05:46:06;;;;;;;6.35;5.85;;;;;;;23.23;62.60;100298.50;5012194;28;20088;-42
2021/07/26 05:48:32;;;;;;;6.38;5.78;;;;;;;23.23;62.44;100297.63;5013765;28;20026;-41
2021/07/26 05:50:57;;;;;;;5.93;5.43;;;;;;;23.24;62.64;100294.84;5014162;28;20040;-42
2021/07/26 05:53:22;;;;;;;6.90;5.88;;;;;;;23.24;62.77;100296.69;5014517;28;20396;-41
2021/07/26 05:55:48;;;;;;;6.00;5.50;;;;;;;23.22;62.47;100294.13;5014199;28;20393;-42
2021/07/26 05:58:13;;;;;;;6.15;5.63;;;;;;;23.23;62.68;100303.91;5013577;28;20046;-41
2021/07/26 06:00:42;;;;;;;5.65;4.97;;;;;;;23.23;62.55;100303.03;5014212;28;20037;-41
2021/07/26 06:03:08;;;;;;;5.70;5.00;;;;;;;23.22;62.67;100304.00;5014085;28;20441;-42
2021/07/26 06:05:33;;;;;;;6.50;5.90;;;;;;;23.22;62.63;100299.50;5014026;28;20066;-41
2021/07/26 06:07:58;;;;;;;6.68;6.00;;;;;;;23.22;62.43;100301.31;5012548;28;20068;-43
2021/07/26 06:10:24;;;;;;;6.85;5.85;;;;;;;23.20;62.86;100301.41;5014165;28;20026;-43
2021/07/26 06:12:53;;;;;;;6.10;5.50;;;;;;;23.22;62.76;100301.31;4995633;28;20029;-42
2021/07/26 06:15:19;;;;;;;6.25;5.75;;;;;;;23.20;62.58;100291.53;5013561;28;20018;-42
2021/07/26 06:17:44;;;;;;;6.15;5.60;;;;;;;23.20;62.75;100275.38;5013570;28;20080;-42
2021/07/26 06:20:11;;;;;;;6.22;5.63;;;;;;;23.21;62.57;100281.63;5013868;28;20033;-41
2021/07/26 06:22:39;;;;;;;6.68;6.10;;;;;;;23.20;62.64;100279.88;5013804;28;20022;-42
2021/07/26 06:25:09;;;;;;;6.30;5.80;;;;;;;23.20;62.78;100283.44;5013574;28;20510;-42
2021/07/26 06:27:35;;;;;;;5.90;5.38;;;;;;;23.20;62.79;100288.84;5013655;28;20030;-41
2021/07/26 06:30:00;;;;;;;6.63;6.03;;;;;;;23.20;62.58;100288.84;5013576;28;20105;-42
2021/07/26 06:32:31;;;;;;;6.40;5.90;;;;;;;23.20;62.63;100294.22;5013353;28;20479;-41
2021/07/26 06:34:57;;;;;;;6.30;5.70;;;;;;;23.20;62.79;100291.53;5013393;28;20076;-43
2021/07/26 06:37:22;;;;;;;7.00;6.30;;;;;;;23.20;62.97;100298.72;4995268;28;20038;-42
2021/07/26 06:39:47;;;;;;;6.07;5.57;;;;;;;23.19;62.94;100297.88;5013641;28;20100;-42
2021/07/26 06:42:13;;;;;;;6.47;5.88;;;;;;;23.19;62.68;100292.50;5012827;28;20025;-43
2021/07/26 06:44:39;;;;;;;6.00;5.47;;;;;;;23.18;62.75;100298.81;5012301;28;20029;-43
2021/07/26 06:47:04;;;;;;;6.60;5.88;;;;;;;23.18;62.99;100296.13;5013146;28;20107;-42
2021/07/26 06:49:30;;;;;;;7.43;6.72;;;;;;;23.17;62.96;100297.09;5013068;28;20503;-43
2021/07/26 06:51:58;;;;;;;6.05;5.55;;;;;;;23.19;62.73;100297.88;5012747;28;20076;-43
2021/07/26 06:54:24;;;;;;;6.25;5.65;;;;;;;23.19;62.76;100299.69;5013213;28;20068;-43
2021/07/26 06:56:49;;;;;;;7.07;6.32;;;;;;;23.19;62.83;100297.00;5013017;28;20061;-43
2021/07/26 06:59:14;;;;;;;6.57;5.90;;;;;;;23.19;62.84;100303.25;5012962;28;20057;-42
2021/07/26 07:01:40;;;;;;;6.90;6.30;;;;;;;23.17;62.51;100310.56;5012969;28;20038;-43
2021/07/26 07:04:06;;;;;;;6.53;5.93;;;;;;;23.16;62.28;100297.22;5013254;28;20440;-43
2021/07/26 07:06:31;;;;;;;7.22;6.53;;;;;;;23.16;62.41;100303.47;5012546;28;20385;-43
2021/07/26 07:08:57;;;;;;;6.68;6.18;;;;;;;23.15;62.51;100307.13;5013038;28;20033;-42
2021/07/26 07:11:25;;;;;;;6.75;6.10;;;;;;;23.16;62.62;100307.97;5013158;28;20105;-42
2021/07/26 07:13:52;;;;;;;6.97;6.38;;;;;;;23.15;62.42;100309.81;5011400;28;20032;-43
2021/07/26 07:16:20;;;;;;;6.82;6.13;;;;;;;23.17;62.04;100307.00;5012087;28;20073;-43
2021/07/26 07:18:46;;;;;;;7.47;6.78;;;;;;;23.17;62.40;100307.00;5012874;28;20108;-43
2021/07/26 07:21:19;;;;;;;7.03;6.30;;;;;;;23.16;62.25;100305.28;5012930;28;20069;-42
2021/07/26 07:23:45;;;;;;;6.93;6.22;;;;;;;23.16;62.26;100305.28;5012533;28;20022;-42
2021/07/26 07:26:11;;;;;;;6.50;5.90;;;;;;;23.16;62.34;100298.09;5012583;28;20026;-42
2021/07/26 07:28:37;;;;;;;7.70;6.68;;;;;;;23.15;62.23;100296.38;5012639;28;20517;-42
2021/07/26 07:31:02;;;;;;;6.20;5.25;;;;;;;23.17;62.16;100301.63;5012292;28;20024;-42
2021/07/26 07:33:28;;;;;;;6.13;5.63;;;;;;;23.15;62.34;100301.75;5012498;28;20036;-42
2021/07/26 07:35:53;;;;;;;6.55;5.95;;;;;;;23.15;62.12;100301.75;5012456;28;20029;-42
2021/07/26 07:38:27;;;;;;;6.25;5.65;;;;;;;23.15;62.08;100309.81;5012407;28;20041;-42
2021/07/26 07:40:53;;;;;;;7.05;5.40;;;;;;;23.15;61.92;100307.13;5012123;28;20032;-42
2021/07/26 07:43:18;;;;;;;5.72;5.22;;;;;;;23.15;62.08;100311.63;5010686;28;20033;-43
2021/07/26 07:45:46;;;;;;;6.15;5.65;;;;;;;23.16;62.00;100319.59;5011514;28;20018;-42
2021/07/26 07:48:12;;;;;;;5.72;5.15;;;;;;;23.14;62.29;100321.53;5011840;28;20480;-42
2021/07/26 07:50:37;;;;;;;5.72;5.13;;;;;;;23.15;62.02;100319.69;4994422;28;20052;-42
2021/07/26 07:53:03;;;;;;;6.80;5.63;;;;;;;23.15;62.26;100306.25;5012355;28;20033;-43
2021/07/26 07:55:29;;;;;;;6.68;6.07;;;;;;;23.15;62.13;100317.88;5012094;28;20026;-42
2021/07/26 07:57:54;;;;;;;6.28;5.70;;;;;;;23.16;62.07;100314.22;5012168;28;20514;-42
2021/07/26 08:00:21;;;;;;;6.47;5.97;;;;;;;23.14;62.17;100310.75;5011557;28;20030;-42
2021/07/26 08:02:47;;;;;;;6.50;5.93;;;;;;;23.14;62.04;100308.06;5011869;28;20025;-43
2021/07/26 08:05:12;;;;;;;6.18;5.68;;;;;;;23.16;62.00;100307.97;5011939;28;20077;-42
2021/07/26 08:07:37;;;;;;;5.53;4.82;;;;;;;23.15;61.91;100309.81;4994407;28;20440;-42
2021/07/26 08:10:04;;;;;;;6.63;6.03;;;;;;;23.16;62.25;100311.53;5011826;28;20033;-43
2021/07/26 08:12:32;;;;;;;6.93;6.30;;;;;;;23.15;62.09;100306.25;5010971;28;20483;-42
2021/07/26 08:14:58;;;;;;;6.30;5.70;;;;;;;23.16;62.17;100311.53;5010287;28;20026;-42
2021/07/26 08:17:23;;;;;;;7.40;6.22;;;;;;;23.15;62.09;100304.44;5012026;28;20440;-42
2021/07/26 08:19:48;;;;;;;7.65;6.82;;;;;;;23.16;61.91;100303.47;5011686;28;20817;-42
2021/07/26 08:22:14;;;;;;;6.97;6.32;;;;;;;23.15;62.04;100309.81;5011847;28;20460;-42
2021/07/26 08:24:39;;;;;;;5.90;5.40;;;;;;;23.16;62.02;100306.16;5011862;28;20149;-44
2021/07/26 08:27:05;;;;;;;9.00;6.30;;;;;;;23.15;62.13;100306.25;4994279;28;20116;-43
2021/07/26 08:29:30;;;;;;;6.65;6.00;;;;;;;23.16;61.81;100311.53;5010543;28;20026;-43
2021/07/26 08:31:56;;;;;;;6.35;5.75;;;;;;;23.16;61.97;100313.34;5010333;28;20026;-43
2021/07/26 08:34:21;;;;;;;6.65;6.10;;;;;;;23.15;61.83;100307.13;5011797;28;20026;-43
2021/07/26 08:36:46;;;;;;;7.15;6.55;;;;;;;23.15;61.80;100312.50;5011570;28;20025;-42
2021/07/26 08:39:14;;;;;;;6.53;5.97;;;;;;;23.16;61.50;100311.53;5011371;28;20080;-43
2021/07/26 08:41:43;;;;;;;6.38;5.78;;;;;;;23.15;61.54;100307.13;5010458;28;20037;-42
2021/07/26 08:44:08;;;;;;;5.88;5.38;;;;;;;23.14;61.83;100308.06;4993173;28;20064;-43
2021/07/26 08:46:34;;;;;;;6.82;6.13;;;;;;;23.17;61.65;100309.69;5010675;28;20128;-43
2021/07/26 08:49:06;;;;;;;7.00;6.30;;;;;;;23.16;61.38;100307.97;5011446;28;20030;-42
2021/07/26 08:51:34;;;;;;;6.47;5.85;;;;;;;23.15;61.59;100304.44;4994131;28;20562;-42
2021/07/26 08:54:01;;;;;;;6.25;5.65;;;;;;;23.16;61.39;100307.97;5011536;28;20029;-42
2021/07/26 08:56:26;;;;;;;5.90;5.40;;;;;;;23.16;61.40;100316.91;5011270;28;20022;-43
2021/07/26 08:58:51;;;;;;;6.13;5.53;;;;;;;23.16;61.47;100302.59;5011514;28;20105;-42
2021/07/26 09:01:17;;;;;;;6.30;5.80;;;;;;;23.16;61.38;100314.22;5012403;28;20121;-43
2021/07/26 09:03:42;;;;;;;6.47;5.88;;;;;;;23.17;61.54;100310.56;5015447;28;20030;-42
2021/07/26 09:06:08;;;;;;;5.95;5.43;;;;;;;23.18;61.43;100316.81;5014914;28;20376;-42
2021/07/26 09:08:35;;;;;;;6.93;6.18;;;;;;;23.18;61.70;100314.13;4997608;28;20105;-42
2021/07/26 09:11:02;;;;;;;6.55;5.95;;;;;;;23.18;61.55;100314.97;4997777;28;20032;-42
2021/07/26 09:13:44;;;;;;;6.65;6.05;;;;;;;23.18;61.76;100314.97;5015245;28;20030;-43
2021/07/26 09:16:16;;;;;;;6.03;5.53;;;;;;;23.19;61.59;100316.72;5004092;28;20116;-42
2021/07/26 09:18:42;;;;;;;5.85;5.35;;;;;;;23.18;61.81;100312.28;5015218;28;20419;-42
2021/07/26 09:21:07;;;;;;;5.93;5.43;;;;;;;23.19;61.76;100319.41;5014770;28;20084;-42
2021/07/26 09:23:35;;;;;;;6.50;5.82;;;;;;;23.19;61.38;100316.72;4997687;28;20430;-42
2021/07/26 09:26:03;;;;;;;6.43;5.82;;;;;;;23.20;61.66;100322.94;4997013;28;20481;-42
2021/07/26 09:28:34;;;;;;;6.05;5.45;;;;;;;23.20;61.73;100322.94;4997792;28;20025;-42
2021/07/26 09:31:04;;;;;;;5.45;4.95;;;;;;;23.20;61.68;100318.41;5012977;28;20029;-42
2021/07/26 09:33:30;;;;;;;6.65;5.93;;;;;;;23.22;61.68;100320.13;4996490;28;20598;-43
2021/07/26 09:36:12;;;;;;;6.13;5.63;;;;;;;23.20;61.37;100315.72;4996936;28;20476;-42
2021/07/26 09:38:40;;;;;;;6.28;5.63;;;;;;;23.20;61.32;100313.03;4998183;28;20036;-42
2021/07/26 09:41:11;;;;;;;6.85;5.68;;;;;;;23.22;61.61;100312.06;5014801;28;20025;-42
2021/07/26 09:43:38;;;;;;;6.57;5.97;;;;;;;23.22;61.33;100314.75;5014209;28;20492;-42
2021/07/26 09:46:06;;;;;;;6.32;5.72;;;;;;;23.23;61.30;100324.53;5014166;28;20071;-42
2021/07/26 09:48:34;;;;;;;6.18;5.53;;;;;;;23.21;61.43;100322.00;4997141;28;20472;-42
2021/07/26 09:51:03;;;;;;;6.28;5.68;;;;;;;23.22;61.57;100318.31;5014354;28;20041;-43
2021/07/26 09:53:31;;;;;;;5.90;5.40;;;;;;;23.23;61.51;100321.84;5014364;28;20025;-42
2021/07/26 09:56:13;;;;;;;5.70;5.10;;;;;;;23.23;61.28;100321.84;4996454;28;20025;-42
2021/07/26 09:58:41;;;;;;;6.00;5.50;;;;;;;23.23;61.46;100321.84;5013804;28;20026;-42
2021/07/26 10:01:12;;;;;;;5.80;5.30;;;;;;;23.23;61.37;100314.66;5014256;28;20025;-42
2021/07/26 10:03:41;;;;;;;;;;;;;;;23.26;61.20;100313.56;5013016;28;20030;-43
2021/07/26 10:06:10;;;;;;;5.68;5.18;;;;;;;23.24;61.40;100311.00;5013996;28;19921;-42
2021/07/26 10:08:39;;;;;;;6.35;5.75;;;;;;;23.24;61.07;100310.16;5013936;28;20021;-42
2021/07/26 10:11:04;;;;;;;6.03;5.43;;;;;;;23.25;61.15;100311.88;4992847;28;20026;-42
2021/07/26 10:13:30;;;;;;;5.65;5.13;;;;;;;23.26;61.33;100308.19;4993878;28;20027;-42
2021/07/26 10:15:56;;;;;;;5.72;5.22;;;;;;;23.26;61.27;100313.56;4980855;28;20030;-43
2021/07/26 10:18:21;;;;;;;5.22;4.70;;;;;;;23.27;61.10;100316.16;5014037;28;20503;-42
2021/07/26 10:20:50;;;;;;;5.25;4.75;;;;;;;23.27;60.99;100318.84;5013865;28;20034;-42
2021/07/26 10:23:21;;;;;;;5.28;4.88;;;;;;;23.27;60.94;100318.84;4996222;28;20116;-42
2021/07/26 10:25:55;;;;;;;;;;;;;;;23.28;60.96;100319.72;4996465;28;20026;-42
2021/07/26 10:28:37;;;;;;;5.10;4.57;;;;;;;23.28;61.42;100314.34;5013543;28;19909;-42
2021/07/26 10:31:32;;;;;;;5.53;5.03;;;;;;;23.28;61.10;100319.72;4994221;28;20464;-42
2021/07/26 10:34:21;;;;;;;5.60;5.15;;;;;;;23.29;61.24;100316.06;5012839;28;20030;-42
2021/07/26 10:36:47;;;;;;;5.22;4.82;;;;;;;23.29;61.24;100308.00;5013652;28;20021;-42
2021/07/26 10:39:16;;;;;;;6.05;5.45;;;;;;;23.28;60.89;100315.19;5013759;28;20491;-43
2021/07/26 10:41:48;;;;;;;5.03;4.50;;;;;;;23.31;61.22;100306.06;5013621;28;20034;-43
2021/07/26 10:44:16;;;;;;;6.45;4.95;;;;;;;23.30;61.28;100302.50;5013222;28;20432;-42
2021/07/26 10:46:57;;;;;;;5.57;5.07;;;;;;;23.33;60.85;100301.44;5011653;28;20065;-42
2021/07/26 10:49:42;;;;;;;5.38;4.90;;;;;;;23.33;61.10;100304.13;5013054;28;20026;-42
2021/07/26 10:52:09;;;;;;;5.68;4.97;;;;;;;23.33;60.87;100298.75;5013556;28;20033;-42
2021/07/26 10:54:35;;;;;;;4.93;4.53;;;;;;;23.33;61.06;100307.69;5013403;28;20021;-44
2021/07/26 10:57:01;;;;;;;4.80;4.40;;;;;;;23.34;61.03;100295.06;5011559;28;20083;-42
2021/07/26 10:59:26;;;;;;;4.93;4.43;;;;;;;23.36;61.34;100297.69;5013176;28;20103;-43
2021/07/26 11:02:02;;;;;;;5.68;4.85;;;;;;;23.36;61.01;100295.88;5013371;28;20476;-42
2021/07/26 11:04:32;;;;;;;5.50;4.85;;;;;;;23.37;61.20;100294.06;5013080;28;20022;-42
2021/07/26 11:07:02;;;;;;;5.18;4.78;;;;;;;23.37;61.08;100299.44;5012841;28;20380;-43
2021/07/26 11:09:32;;;;;;;6.53;4.60;;;;;;;23.37;60.96;100294.91;5012949;28;20025;-43
2021/07/26 11:11:58;;;;;;;5.03;4.55;;;;;;;23.39;60.83;100290.28;5012097;28;20037;-42
2021/07/26 11:14:24;;;;;;;6.00;4.18;;;;;;;23.39;61.12;100295.66;5011502;28;20034;-42
2021/07/26 11:16:49;;;;;;;5.85;4.88;;;;;;;23.40;61.12;100292.00;5012553;28;20092;-43
2021/07/26 11:19:39;;;;;;;4.38;3.97;;;;;;;23.41;60.98;100296.41;5012393;28;20595;-42
2021/07/26 11:22:17;;;;;;;5.07;4.55;;;;;;;23.42;60.92;100292.78;5012954;28;20039;-44
2021/07/26 11:24:43;;;;;;;5.45;4.95;;;;;;;23.42;61.00;100287.38;5012621;28;20045;-43
2021/07/26 11:27:08;;;;;;;4.73;4.33;;;;;;;23.41;60.97;100296.41;5012256;28;20065;-42
2021/07/26 11:29:34;;;;;;;5.20;4.45;;;;;;;23.42;60.98;100299.97;4994756;28;20292;-42
2021/07/26 11:32:00;;;;;;;4.93;4.47;;;;;;;23.41;61.08;100293.72;5012319;28;20029;-44